Time;durP1;ratioP1;P1;durP2;ratioP2;P2;SDS_P1;SDS_P2;PMS_P1;PMS_P2;Temp;Humidity;BMP_temperature;BMP_pressure;BME280_temperature;BME280_humidity;BME280_pressure;Samples;Min_cycle;Max_cycle;Signal;HPM_P1;HPM_P2
2021/07/25 00:02:29;;;;;;;4.30;2.20;;;19.50;91.50;;;22.53;77.36;100648.47;4391091;39;96788;-75
2021/07/25 00:05:35;;;;;;;9.82;2.20;;;19.40;91.50;;;22.46;77.48;100639.47;4394983;39;97193;-75
2021/07/25 00:08:39;;;;;;;3.83;2.97;;;19.40;91.50;;;22.41;77.12;100648.03;4388648;39;97293;-75
2021/07/25 00:11:44;;;;;;;7.03;3.72;;;19.30;91.60;;;22.41;77.22;100639.84;4374779;39;96938;-75
2021/07/25 00:14:48;;;;;;;7.00;3.58;;;19.30;91.60;;;22.31;77.46;100638.59;4392055;39;97634;-75
2021/07/25 00:18:08;;;;;;;3.50;3.20;;;19.20;91.70;;;22.26;77.50;100636.22;4427385;39;96579;-74
2021/07/25 00:21:13;;;;;;;2.05;1.77;;;19.20;91.70;;;22.15;78.14;100633.81;4414401;39;97741;-74
2021/07/25 00:24:22;;;;;;;;;;;19.20;91.70;;;22.01;78.89;100639.97;4411566;39;97647;-73
2021/07/25 00:27:29;;;;;;;6.40;2.72;;;19.10;91.70;;;22.00;78.98;100651.25;4399950;39;96799;-74
2021/07/25 00:30:33;;;;;;;2.33;2.15;;;19.10;91.80;;;22.04;78.62;100655.59;4400040;39;96840;-74
2021/07/25 00:33:40;;;;;;;1.85;1.75;;;19.10;91.80;;;22.04;78.60;100649.31;4405386;39;96830;-74
2021/07/25 00:36:44;;;;;;;2.75;2.47;;;19.10;91.80;;;22.06;78.59;100638.81;4405003;39;98370;-74
2021/07/25 00:39:48;;;;;;;4.07;2.55;;;19.10;91.90;;;22.11;78.29;100638.47;4415352;39;97784;-74
2021/07/25 00:42:52;;;;;;;14.27;4.60;;;19.10;91.90;;;22.14;78.22;100643.94;4416935;39;97493;-75
2021/07/25 00:45:56;;;;;;;;;;;19.10;91.90;;;22.04;78.32;100641.16;4405452;39;96782;-75
2021/07/25 00:49:04;;;;;;;5.40;3.08;;;19.00;91.80;;;21.92;78.44;100633.28;4413478;39;96776;-75
2021/07/25 00:52:09;;;;;;;9.38;4.57;;;19.00;91.90;;;21.88;78.80;100635.19;4415463;39;97014;-75
2021/07/25 00:55:14;;;;;;;3.58;2.00;;;18.90;91.90;;;21.77;78.76;100646.03;4403412;39;99108;-75
2021/07/25 00:58:19;;;;;;;2.92;1.73;;;18.90;91.90;;;21.74;78.63;100652.25;4413397;39;99418;-74
2021/07/25 01:01:22;;;;;;;;;;;18.80;91.90;;;21.69;79.37;100658.06;4412845;39;97561;-75
2021/07/25 01:04:43;;;;;;;9.48;2.17;;;18.80;91.90;;;21.63;78.54;100650.59;4406310;39;98101;-75
2021/07/25 01:07:56;;;;;;;3.92;2.58;;;18.70;91.90;;;21.59;78.72;100647.78;4398681;39;97653;-74
2021/07/25 01:11:03;;;;;;;5.00;2.30;;;18.70;92.00;;;21.56;79.23;100645.06;4414671;39;98534;-74
2021/07/25 01:14:08;;;;;;;1.48;1.38;;;18.70;92.10;;;21.62;79.43;100644.38;4414139;39;97194;-74
2021/07/25 01:17:32;;;;;;;2.53;1.52;;;18.60;92.10;;;21.58;78.34;100648.94;4413485;39;96944;-75
2021/07/25 01:20:39;;;;;;;11.02;3.47;;;18.60;92.10;;;21.52;78.85;100652.41;4412579;39;97529;-74
2021/07/25 01:23:44;;;;;;;5.32;2.13;;;18.60;92.10;;;21.48;78.54;100652.38;4401671;39;97726;-74
2021/07/25 01:26:48;;;;;;;3.85;2.25;;;18.50;92.10;;;21.50;78.47;100655.50;4401665;39;96669;-75
2021/07/25 01:30:14;;;;;;;12.13;4.70;;;18.50;92.20;;;21.43;78.57;100652.72;4399560;39;97668;-74
2021/07/25 01:33:25;;;;;;;0.82;0.82;;;18.50;92.20;;;21.41;79.03;100649.59;4398372;39;97647;-74
2021/07/25 01:36:31;;;;;;;4.32;2.45;;;18.50;92.20;;;21.37;79.29;100654.22;4388674;39;97139;-74
2021/07/25 01:39:35;;;;;;;3.90;3.47;;;18.40;92.10;;;21.29;78.90;100660.00;4402211;39;97301;-74
2021/07/25 01:42:39;;;;;;;;;;;18.40;92.20;;;21.26;78.96;100650.59;4400666;39;97549;-74
2021/07/25 01:45:43;;;;;;;1.48;1.38;;;18.40;92.10;;;21.23;79.17;100651.34;4387632;39;101168;-74
2021/07/25 01:48:47;;;;;;;4.53;2.25;;;18.30;92.10;;;21.13;78.48;100648.50;4403167;39;97859;-74
2021/07/25 01:51:52;;;;;;;12.02;3.63;;;18.20;92.20;;;21.10;78.91;100641.91;4409106;39;97110;-74
2021/07/25 01:54:56;;;;;;;1.65;1.48;;;18.20;92.20;;;21.08;79.40;100646.13;4381523;39;98014;-74
2021/07/25 01:57:59;;;;;;;;;;;18.10;92.20;;;21.04;79.39;100648.03;4388941;39;96701;-74
2021/07/25 02:01:05;;;;;;;3.38;2.50;;;18.10;92.30;;;20.93;79.57;100647.16;4382551;39;97840;-74
2021/07/25 02:04:09;;;;;;;;;;;18.10;92.30;;;20.88;79.88;100645.53;4397658;39;97860;-74
2021/07/25 02:07:14;;;;;;;1.58;1.45;;;18.00;92.30;;;20.95;79.10;100639.38;4407267;39;97454;-74
2021/07/25 02:10:18;;;;;;;11.60;3.25;;;18.00;92.30;;;20.94;79.46;100640.53;4397823;39;98087;-74
2021/07/25 02:13:24;;;;;;;3.00;2.15;;;18.00;92.40;;;20.99;79.02;100642.94;4402129;39;97684;-74
2021/07/25 02:16:28;;;;;;;2.85;1.73;;;17.90;92.40;;;20.98;79.07;100636.69;4403499;39;97780;-74
2021/07/25 02:19:33;;;;;;;2.22;2.03;;;17.90;92.40;;;21.05;78.01;100636.00;4404561;39;96833;-74
2021/07/25 02:22:38;;;;;;;5.97;2.42;;;17.90;92.40;;;20.96;79.58;100639.00;4395465;39;97149;-74
2021/07/25 02:25:42;;;;;;;3.13;2.67;;;17.90;92.50;;;20.94;79.80;100630.41;4401190;39;97366;-74
2021/07/25 02:28:46;;;;;;;3.78;2.67;;;17.90;92.50;;;20.94;78.84;100635.09;4404361;39;96731;-74
2021/07/25 02:31:51;;;;;;;6.30;2.13;;;17.90;92.50;;;20.98;79.60;100633.19;4405259;39;96756;-74
2021/07/25 02:34:54;;;;;;;1.90;1.77;;;17.90;92.50;;;21.03;79.06;100630.94;4387180;39;97681;-74
2021/07/25 02:38:00;;;;;;;8.57;4.65;;;17.90;92.50;;;20.90;79.10;100623.38;4394282;39;97538;-74
2021/07/25 02:41:09;;;;;;;2.58;2.08;;;17.90;92.50;;;20.85;79.06;100621.78;4402198;39;96764;-74
2021/07/25 02:44:13;;;;;;;10.65;4.50;;;17.90;92.50;;;20.84;79.95;100631.09;4403377;39;96672;-74
2021/07/25 02:47:28;;;;;;;8.95;4.38;;;17.80;92.50;;;20.86;78.97;100634.22;4389455;39;96878;-74
2021/07/25 02:50:33;;;;;;;9.55;3.72;;;17.80;92.50;;;20.76;79.37;100634.06;4394698;39;97090;-74
2021/07/25 02:53:38;;;;;;;9.13;3.15;;;17.80;92.50;;;20.76;79.51;100637.59;4403225;39;97652;-74
2021/07/25 02:56:42;;;;;;;3.50;2.75;;;17.80;92.50;;;20.73;79.56;100643.78;4401430;39;99078;-74
2021/07/25 02:59:46;;;;;;;;;;;17.80;92.50;;;20.68;79.57;100641.38;4396017;39;96728;-74
2021/07/25 03:02:50;;;;;;;4.13;1.30;;;17.70;92.50;;;20.61;79.74;100654.91;4406935;39;97486;-74
2021/07/25 03:05:54;;;;;;;10.40;5.70;;;17.70;92.50;;;20.56;79.97;100654.44;4401594;39;97638;-74
2021/07/25 03:08:59;;;;;;;;;;;17.70;92.50;;;20.52;79.98;100652.84;4388726;39;96864;-74
2021/07/25 03:12:06;;;;;;;2.05;1.90;;;17.60;92.50;;;20.49;79.98;100656.31;4388097;39;96670;-73
2021/07/25 03:15:12;;;;;;;2.28;2.03;;;17.60;92.50;;;20.49;79.97;100650.84;4385326;39;97308;-74
2021/07/25 03:18:15;;;;;;;29.92;5.43;;;17.50;92.60;;;20.45;79.59;100658.19;4404678;39;97741;-74
2021/07/25 03:21:19;;;;;;;;;;;17.50;92.60;;;20.39;80.36;100665.88;4401668;39;97629;-74
2021/07/25 03:24:24;;;;;;;3.60;2.47;;;17.50;92.60;;;20.36;80.26;100655.75;4400387;39;97736;-74
2021/07/25 03:27:29;;;;;;;5.18;3.05;;;17.40;92.60;;;20.41;80.09;100660.06;4400207;39;97565;-74
2021/07/25 03:30:33;;;;;;;2.35;2.15;;;17.40;92.60;;;20.32;80.21;100657.63;4405464;39;97695;-74
2021/07/25 03:33:37;;;;;;;;;;;17.40;92.60;;;20.32;79.32;100662.28;4404026;39;96906;-74
2021/07/25 03:36:42;;;;;;;2.73;2.13;;;17.40;92.60;;;20.41;78.88;100668.22;4387279;39;97526;-74
2021/07/25 03:39:51;;;;;;;5.57;3.22;;;17.40;92.70;;;20.38;79.57;100660.81;4403006;39;97621;-74
2021/07/25 03:42:54;;;;;;;1.92;1.77;;;17.40;92.70;;;20.38;79.37;100664.31;4397008;39;97416;-74
2021/07/25 03:45:58;;;;;;;;;;;17.40;92.70;;;20.38;79.25;100667.03;4404376;39;96657;-74
2021/07/25 03:49:04;;;;;;;3.20;1.43;;;17.40;92.70;;;20.41;79.10;100660.88;4396071;39;98012;-74
2021/07/25 03:52:11;;;;;;;4.50;2.63;;;17.40;92.70;;;20.47;78.88;100648.50;4396842;39;97257;-74
2021/07/25 03:55:17;;;;;;;2.58;2.17;;;17.40;92.70;;;20.50;78.94;100655.16;4389670;39;96986;-74
2021/07/25 03:58:21;;;;;;;3.10;2.90;;;17.40;92.60;;;20.57;78.37;100657.97;4397181;39;97559;-74
2021/07/25 04:01:24;;;;;;;2.50;1.88;;;17.40;92.60;;;20.58;78.66;100662.25;4381279;39;97496;-74
2021/07/25 04:04:29;;;;;;;11.20;2.40;;;17.40;92.60;;;20.66;78.11;100657.28;4396109;39;97169;-74
2021/07/25 04:07:32;;;;;;;2.15;1.90;;;17.40;92.60;;;20.65;78.53;100658.44;4405261;39;96569;-74
2021/07/25 04:10:42;;;;;;;;;;;17.50;92.60;;;20.69;78.64;100658.50;4405807;39;97569;-74
2021/07/25 04:13:46;;;;;;;2.28;2.05;;;17.50;92.60;;;20.68;78.15;100663.16;4402743;39;97470;-74
2021/07/25 04:16:50;;;;;;;4.28;3.63;;;17.50;92.60;;;20.66;79.00;100660.03;4384609;39;97568;-74
2021/07/25 04:19:54;;;;;;;;;;;17.50;92.60;;;20.64;78.84;100656.88;4402228;39;96756;-74
2021/07/25 04:22:57;;;;;;;2.83;1.70;;;17.50;92.50;;;20.70;78.54;100666.28;4398314;39;98021;-74
2021/07/25 04:26:04;;;;;;;4.43;2.85;;;17.50;92.50;;;20.66;79.52;100673.63;4381255;39;97466;-74
2021/07/25 04:29:08;;;;;;;1.98;1.80;;;17.50;92.50;;;20.81;78.26;100672.66;4396182;39;97585;-74
2021/07/25 04:32:15;;;;;;;5.80;3.95;;;17.60;92.50;;;20.76;79.38;100674.94;4397183;39;97101;-74
2021/07/25 04:35:21;;;;;;;4.93;2.58;;;17.70;92.40;;;20.77;78.87;100682.75;4386520;39;97650;-74
2021/07/25 04:38:26;;;;;;;4.38;3.42;;;17.70;92.40;;;20.79;78.70;100674.19;4394918;39;97678;-74
2021/07/25 04:41:47;;;;;;;6.43;2.00;;;17.70;92.40;;;20.84;78.79;100685.56;4393971;39;97660;-74
2021/07/25 04:45:01;;;;;;;2.60;1.15;;;17.70;92.40;;;20.94;79.19;100690.34;4403227;39;96641;-74
2021/07/25 04:48:24;;;;;;;9.90;3.20;;;17.70;92.40;;;21.04;78.71;100689.72;4394593;39;97592;-74
2021/07/25 04:51:31;;;;;;;11.55;3.40;;;17.80;92.40;;;21.16;78.07;100703.06;4403788;39;97187;-74
2021/07/25 04:54:40;;;;;;;2.50;2.22;;;17.80;92.40;;;21.31;77.34;100701.28;4402312;39;98162;-74
2021/07/25 04:57:45;;;;;;;3.42;2.78;;;17.90;92.40;;;21.33;77.99;100694.31;4402330;39;97656;-74
2021/07/25 05:00:53;;;;;;;5.35;3.25;;;17.90;92.30;;;21.45;77.73;100704.94;4396968;39;96848;-74
2021/07/25 05:04:03;;;;;;;1.27;1.23;;;18.00;92.30;;;21.53;78.14;100711.25;4395109;39;97325;-74
2021/07/25 05:07:12;;;;;;;2.72;1.92;;;18.10;92.20;;;21.70;77.28;100711.44;4403011;39;97706;-75
2021/07/25 05:10:18;;;;;;;4.13;2.40;;;18.20;92.20;;;21.89;77.42;100703.00;4406319;39;96502;-75
2021/07/25 05:13:27;;;;;;;3.55;3.25;;;18.30;92.10;;;21.83;77.58;100715.44;4404871;39;96598;-75
2021/07/25 05:16:41;;;;;;;3.85;1.83;;;18.40;92.00;;;21.96;77.25;100722.19;4396857;39;97060;-75
2021/07/25 05:20:06;;;;;;;3.50;1.50;;;18.50;92.00;;;22.09;77.06;100712.53;4403883;39;96919;-74
2021/07/25 05:23:19;;;;;;;;;;;18.60;92.00;;;22.20;76.78;100712.63;4403799;39;98784;-75
2021/07/25 05:26:27;;;;;;;3.38;2.17;;;18.60;91.90;;;22.32;75.84;100713.09;4406477;39;97557;-74
2021/07/25 05:29:35;;;;;;;5.18;2.90;;;18.70;91.90;;;22.88;75.55;100718.91;4402360;39;96999;-75
2021/07/25 05:32:39;;;;;;;3.00;2.80;;;19.00;91.70;;;23.15;74.78;100715.50;4396550;39;97612;-75
2021/07/25 05:35:43;;;;;;;4.85;2.28;;;19.20;91.40;;;23.31;74.56;100705.03;4402771;39;97637;-75
2021/07/25 05:38:47;;;;;;;2.83;2.60;;;19.40;91.30;;;23.71;73.96;100714.81;4404684;39;97663;-75
2021/07/25 05:41:50;;;;;;;7.05;3.20;;;19.70;91.10;;;24.10;72.71;100706.28;4396295;39;98825;-75
2021/07/25 05:44:56;;;;;;;;;;;20.00;90.90;;;24.75;71.58;100700.25;4395814;39;97319;-75
2021/07/25 05:48:00;;;;;;;7.80;3.05;;;20.50;90.50;;;26.45;67.17;100705.78;4408173;39;97520;-75
2021/07/25 05:51:10;;;;;;;4.10;2.22;;;21.50;89.50;;;28.08;63.95;100702.75;4391313;39;98127;-75
2021/07/25 05:54:14;;;;;;;5.05;2.33;;;22.70;87.00;;;29.35;61.90;100697.09;4378307;39;96579;-75
2021/07/25 05:57:18;;;;;;;;;;;23.90;84.90;;;30.96;59.28;100699.25;4397152;39;98690;-76
2021/07/25 06:00:23;;;;;;;6.40;2.47;;;25.20;82.40;;;32.04;57.97;100694.25;4405092;39;96765;-75
2021/07/25 06:03:29;;;;;;;4.80;3.08;;;26.40;80.20;;;32.97;56.99;100703.19;4382808;39;96832;-75
2021/07/25 06:06:33;;;;;;;5.45;3.50;;;27.40;78.70;;;33.37;57.12;100699.25;4408866;39;96997;-76
2021/07/25 06:09:41;;;;;;;10.10;3.45;;;28.20;77.70;;;33.28;58.84;100698.44;4385948;39;96747;-76
2021/07/25 06:12:45;;;;;;;;;;;28.60;77.40;;;33.62;59.03;100689.91;4404418;39;97011;-76
2021/07/25 06:15:50;;;;;;;8.80;3.92;;;29.00;77.20;;;33.41;60.90;100697.13;4401784;39;96815;-75
2021/07/25 06:18:55;;;;;;;7.28;3.13;;;29.10;77.10;;;33.06;62.02;100692.16;4402131;39;96820;-76
2021/07/25 06:21:59;;;;;;;4.20;2.47;;;29.00;78.10;;;34.37;59.46;100690.72;4399306;39;97848;-76
2021/07/25 06:25:08;;;;;;;5.70;2.40;;;29.60;78.10;;;35.05;58.27;100689.25;4400608;39;97781;-76
2021/07/25 06:28:12;;;;;;;10.23;4.47;;;30.20;77.20;;;33.34;62.75;100704.97;4404042;39;98239;-76
2021/07/25 06:31:17;;;;;;;5.93;2.72;;;29.80;77.60;;;31.67;66.35;100706.16;4404826;39;97713;-76
2021/07/25 06:34:21;;;;;;;12.52;4.70;;;28.90;79.10;;;30.60;68.32;100713.72;4403781;39;97500;-76
2021/07/25 06:37:25;;;;;;;;;;;28.00;80.10;;;29.15;71.22;100712.91;4405125;39;97954;-76
2021/07/25 06:40:32;;;;;;;4.68;2.22;;;27.00;81.30;;;27.89;72.52;100719.25;4394140;39;98740;-76
2021/07/25 06:43:36;;;;;;;9.48;5.13;;;26.00;82.20;;;27.40;73.63;100729.00;4403100;39;96777;-75
2021/07/25 06:46:42;;;;;;;2.45;1.92;;;25.20;84.20;;;27.16;73.66;100723.81;4402977;39;97959;-75
2021/07/25 06:49:46;;;;;;;3.35;1.85;;;24.60;85.50;;;27.63;72.73;100715.31;4393063;39;99226;-75
2021/07/25 06:52:54;;;;;;;9.15;3.22;;;24.40;87.20;;;27.73;72.52;100724.59;4384037;39;97525;-75
2021/07/25 06:56:03;;;;;;;4.90;3.92;;;24.40;87.70;;;27.53;72.66;100727.22;4399774;39;97985;-76
2021/07/25 06:59:09;;;;;;;7.05;4.13;;;24.30;87.90;;;27.48;72.79;100724.94;4392216;39;97664;-75
2021/07/25 07:02:13;;;;;;;;;;;24.10;87.90;;;28.33;70.91;100724.41;4400998;39;96834;-75
2021/07/25 07:05:21;;;;;;;3.35;2.50;;;24.30;88.40;;;28.37;70.37;100723.13;4386533;39;98475;-75
2021/07/25 07:08:24;;;;;;;2.88;1.40;;;24.40;87.30;;;29.07;68.65;100730.84;4404645;39;97396;-75
2021/07/25 07:11:28;;;;;;;4.18;1.35;;;24.70;86.80;;;31.07;63.56;100726.59;4394134;39;97562;-75
2021/07/25 07:14:32;;;;;;;4.90;2.88;;;25.50;85.10;;;33.11;59.00;100697.88;4394276;39;98656;-75
2021/07/25 07:17:39;;;;;;;6.20;2.17;;;26.70;83.50;;;36.68;51.61;100691.38;4404672;39;97780;-76
2021/07/25 07:20:43;;;;;;;2.05;1.45;;;28.60;79.80;;;38.89;47.79;100691.19;4395563;39;96987;-76
2021/07/25 07:23:47;;;;;;;3.95;2.13;;;30.40;76.10;;;39.92;46.28;100698.06;4385719;39;98406;-76
2021/07/25 07:26:50;;;;;;;3.65;2.17;;;31.80;73.30;;;40.87;45.72;100704.28;4386099;39;97585;-76
2021/07/25 07:29:56;;;;;;;3.83;1.77;;;32.90;72.20;;;41.94;45.16;100688.31;4409681;39;96778;-76
2021/07/25 07:33:09;;;;;;;6.80;2.92;;;33.90;71.40;;;42.73;43.92;100702.25;4381773;39;97057;-76
2021/07/25 07:36:13;;;;;;;4.43;2.45;;;34.80;69.60;;;43.53;43.47;100701.31;4400933;39;96977;-74
2021/07/25 07:39:17;;;;;;;1.75;1.45;;;35.50;69.50;;;44.49;42.24;100701.22;4395734;39;97683;-74
2021/07/25 07:42:22;;;;;;;2.75;1.83;;;36.10;69.30;;;45.35;41.68;100697.50;4401592;39;97732;-74
2021/07/25 07:45:27;;;;;;;37.03;3.50;;;36.80;69.10;;;46.00;42.08;100708.88;4402740;39;96637;-74
2021/07/25 07:48:33;;;;;;;4.10;1.00;;;37.40;68.90;;;46.47;41.94;100704.75;4403073;39;99227;-74
2021/07/25 07:51:37;;;;;;;2.92;2.13;;;38.00;68.50;;;47.13;40.93;100709.63;4404161;39;96863;-74
2021/07/25 07:54:42;;;;;;;2.40;1.15;;;38.40;68.60;;;47.56;40.50;100703.34;4405005;39;96754;-74
2021/07/25 07:57:47;;;;;;;1.05;0.95;;;38.80;68.40;;;48.31;40.42;100700.88;4396947;39;99501;-74
2021/07/25 08:00:51;;;;;;;1.73;1.35;;;39.20;69.20;;;48.86;39.24;100702.78;4381460;39;98649;-76
2021/07/25 08:03:57;;;;;;;1.20;1.10;;;39.60;68.50;;;49.28;39.37;100701.06;4388410;39;96558;-74
2021/07/25 08:07:04;;;;;;;5.15;1.40;;;39.90;68.50;;;49.27;39.57;100702.41;4404777;39;97642;-74
2021/07/25 08:10:15;;;;;;;1.08;0.88;;;40.10;68.90;;;49.19;39.56;100705.25;4405015;39;99648;-75
2021/07/25 08:13:19;;;;;;;1.38;0.93;;;40.20;68.80;;;49.32;39.92;100707.91;4404963;39;97789;-74
2021/07/25 08:16:23;;;;;;;1.55;1.35;;;40.20;69.70;;;49.70;40.05;100702.94;4397876;39;96970;-75
2021/07/25 08:19:28;;;;;;;1.98;1.00;;;40.30;70.50;;;49.99;39.95;100707.03;4395470;39;96804;-75
2021/07/25 08:22:32;;;;;;;0.57;0.57;;;40.50;71.00;;;50.31;39.82;100709.94;4403664;39;97081;-74
2021/07/25 08:25:36;;;;;;;0.65;0.65;;;40.60;71.70;;;50.68;40.08;100714.69;4402641;39;96664;-74
2021/07/25 08:28:40;;;;;;;1.13;0.77;;;40.90;72.10;;;50.69;38.89;100721.94;4403864;39;96618;-75
2021/07/25 08:31:44;;;;;;;1.42;1.35;;;40.90;70.80;;;50.21;39.07;100708.28;4403929;39;97491;-74
2021/07/25 08:34:51;;;;;;;0.73;0.52;;;40.60;70.30;;;50.19;39.85;100708.88;4383163;39;97668;-74
2021/07/25 08:37:55;;;;;;;1.38;1.25;;;40.40;71.20;;;50.06;39.87;100711.97;4404461;39;97174;-73
2021/07/25 08:41:13;;;;;;;1.55;0.98;;;40.30;71.90;;;50.30;39.87;100708.44;4396935;39;97701;-71
2021/07/25 08:44:55;;;;;;;2.25;1.15;;;40.30;73.00;;;50.64;39.79;100714.34;4395616;39;96533;-72
2021/07/25 08:48:13;;;;;;;1.45;0.38;;;40.40;72.60;;;50.13;40.03;100713.28;4401201;39;97589;-73
2021/07/25 08:51:21;;;;;;;1.27;1.17;;;40.30;72.30;;;50.12;41.01;100715.34;4405456;39;96794;-74
2021/07/25 08:54:29;;;;;;;1.35;0.95;;;40.10;73.70;;;49.61;40.93;100717.00;4400415;39;97442;-70
2021/07/25 08:57:37;;;;;;;4.60;1.65;;;40.00;72.20;;;49.01;41.66;100711.34;4392991;39;98654;-72
2021/07/25 09:00:43;;;;;;;2.35;1.42;;;39.70;72.90;;;48.94;42.50;100718.50;4405846;39;97530;-71
2021/07/25 09:03:47;;;;;;;3.28;1.15;;;39.40;74.20;;;48.68;43.34;100712.41;4403546;39;96937;-72
2021/07/25 09:06:53;;;;;;;1.75;1.10;;;39.40;75.20;;;48.45;44.09;100716.53;4405444;39;97633;-72
2021/07/25 09:10:04;;;;;;;3.00;1.33;;;39.30;75.20;;;46.28;49.14;100715.53;4402877;39;97736;-72
2021/07/25 09:13:08;;;;;;;0.20;0.20;;;39.10;75.60;;;46.61;47.97;100717.63;4402063;39;97527;-72
2021/07/25 09:16:12;;;;;;;2.08;1.48;;;38.60;77.10;;;47.36;45.36;100724.03;4405239;39;96719;-72
2021/07/25 09:19:15;;;;;;;0.82;0.63;;;38.50;76.60;;;46.71;45.96;100718.66;4403742;39;97375;-71
2021/07/25 09:22:21;;;;;;;1.42;1.15;;;38.20;75.60;;;46.78;46.51;100724.41;4402548;39;97004;-71
2021/07/25 09:25:36;;;;;;;1.02;0.93;;;37.90;77.30;;;46.99;45.68;100713.88;4403799;39;97588;-71
2021/07/25 09:28:40;;;;;;;0.65;0.65;;;37.90;76.70;;;46.84;45.80;100710.06;4400852;39;97486;-71
2021/07/25 09:31:44;;;;;;;3.25;0.80;;;37.80;77.50;;;47.16;45.79;100710.59;4402920;39;97042;-71
2021/07/25 09:34:50;;;;;;;1.98;0.32;;;37.80;78.40;;;47.12;45.67;100715.84;4403245;39;98245;-70
2021/07/25 09:37:58;;;;;;;0.45;0.45;;;37.80;78.20;;;46.95;46.02;100707.75;4402914;39;98917;-71
2021/07/25 09:41:03;;;;;;;0.63;0.45;;;37.70;78.50;;;46.73;46.88;100710.34;4401700;39;97429;-72
2021/07/25 09:44:11;;;;;;;0.95;0.60;;;37.70;78.90;;;46.36;47.46;100704.25;4399362;39;98714;-71
2021/07/25 09:47:33;;;;;;;0.60;0.60;;;37.60;79.30;;;45.60;48.34;100705.28;4400585;39;97799;-73
2021/07/25 09:50:36;;;;;;;1.67;0.55;;;37.40;77.40;;;45.16;49.97;100711.75;4404370;39;96843;-73
2021/07/25 09:53:50;;;;;;;2.25;0.45;;;37.20;79.80;;;44.77;50.91;100701.59;4402284;39;97047;-72
2021/07/25 09:56:53;;;;;;;2.72;1.23;;;37.20;79.30;;;44.33;52.22;100716.31;4397569;39;97363;-71
2021/07/25 10:00:08;;;;;;;0.32;0.32;;;37.00;80.20;;;43.25;54.16;100703.69;4404234;39;97589;-73
2021/07/25 10:03:25;;;;;;;0.70;0.57;;;36.80;79.70;;;42.34;56.14;100705.31;4402451;39;97722;-73
2021/07/25 10:06:29;;;;;;;0.57;0.35;;;36.50;79.30;;;41.82;57.89;100712.16;4404511;39;97664;-71
2021/07/25 10:09:34;;;;;;;1.58;1.05;;;36.20;81.00;;;41.17;59.56;100704.56;4403289;39;97751;-70
2021/07/25 10:12:41;;;;;;;9.60;0.98;;;36.10;81.20;;;40.80;60.60;100709.59;4401513;39;97062;-70
2021/07/25 10:15:54;;;;;;;0.68;0.45;;;36.00;81.60;;;40.61;61.88;100705.75;4403918;39;96808;-71
2021/07/25 10:19:05;;;;;;;0.08;0.08;;;35.80;82.20;;;40.42;62.82;100702.63;4406417;39;97636;-72
2021/07/25 10:22:12;;;;;;;0.20;0.20;;;35.80;82.70;;;40.30;63.77;100703.09;4403150;39;97072;-72
2021/07/25 10:25:21;;;;;;;0.50;0.50;;;35.80;83.20;;;40.05;64.33;100704.03;4402112;39;97068;-70
2021/07/25 10:28:27;;;;;;;0.47;0.47;;;35.80;83.40;;;39.75;65.17;100700.03;4405340;39;97555;-71
2021/07/25 10:31:38;;;;;;;0.70;0.60;;;35.60;83.70;;;39.39;65.91;100698.00;4401155;39;98589;-72
2021/07/25 10:34:42;;;;;;;0.50;0.47;;;35.50;83.20;;;39.12;66.42;100703.38;4408634;39;97762;-73
2021/07/25 10:37:49;;;;;;;2.20;1.15;;;35.30;83.80;;;38.73;67.15;100714.19;4401171;39;97858;-71
2021/07/25 10:40:56;;;;;;;0.82;0.50;;;35.10;83.40;;;37.95;67.74;100708.97;4407247;39;98140;-72
2021/07/25 10:44:06;;;;;;;1.38;0.20;;;34.60;83.00;;;37.87;67.50;100707.03;4405826;39;98449;-72
2021/07/25 10:47:29;;;;;;;0.88;0.70;;;34.30;83.50;;;37.67;67.26;100712.59;4403902;39;98071;-71
2021/07/25 10:50:33;;;;;;;0.57;0.47;;;34.00;83.50;;;37.85;66.97;100707.53;4406832;39;99331;-72
2021/07/25 10:53:36;;;;;;;0.43;0.43;;;33.80;84.60;;;37.67;66.98;100712.59;4406957;39;98581;-72
2021/07/25 10:57:00;;;;;;;0.20;0.20;;;33.60;84.90;;;37.77;67.39;100711.22;4407288;39;96295;-72
2021/07/25 11:00:39;;;;;;;1.30;1.00;;;33.50;84.80;;;37.12;68.02;100711.72;4407637;39;97203;-71
2021/07/25 11:03:44;;;;;;;2.90;0.73;;;33.30;85.10;;;36.65;68.70;100725.09;4411970;39;97228;-72
2021/07/25 11:07:31;;;;;;;0.45;0.30;;;32.90;85.50;;;36.09;69.67;100720.38;4406042;39;96698;-71
2021/07/25 11:10:36;;;;;;;0.17;0.17;;;32.50;85.50;;;36.40;69.25;100731.16;4409881;39;97429;-73
2021/07/25 11:13:43;;;;;;;1.02;0.93;;;32.30;86.70;;;36.35;69.01;100723.47;4401200;39;98031;-72
2021/07/25 11:16:48;;;;;;;0.40;0.38;;;32.20;86.80;;;36.36;68.54;100727.78;4406542;39;98056;-74
2021/07/25 11:19:51;;;;;;;0.20;0.20;;;32.20;86.50;;;36.45;68.60;100727.72;4406282;39;96558;-71
2021/07/25 11:22:56;;;;;;;0.10;0.10;;;32.10;87.00;;;36.54;68.24;100719.28;4409873;39;96669;-71
2021/07/25 11:26:43;;;;;;;0.43;0.43;;;32.20;87.20;;;36.84;67.93;100718.06;4407250;39;97701;-71
2021/07/25 11:29:46;;;;;;;0.17;0.17;;;32.20;87.60;;;36.70;68.34;100721.63;4407412;39;96817;-71
2021/07/25 11:32:53;;;;;;;0.22;0.20;;;32.20;87.40;;;37.22;67.06;100718.75;4405443;39;98583;-71
2021/07/25 11:35:59;;;;;;;2.83;0.47;;;32.40;87.70;;;37.48;66.92;100724.50;4406276;39;97604;-71
2021/07/25 11:39:07;;;;;;;0.30;0.30;;;32.70;87.40;;;37.36;67.34;100715.16;4406110;39;98504;-72
2021/07/25 11:42:13;;;;;;;0.85;0.43;;;32.80;86.90;;;37.52;67.35;100719.47;4406739;39;98232;-72
2021/07/25 11:45:17;;;;;;;1.27;0.77;;;32.80;87.40;;;37.48;67.16;100725.28;4406795;39;96637;-72
2021/07/25 11:48:22;;;;;;;0.55;0.55;;;32.90;86.70;;;37.67;66.62;100737.00;4406078;39;98103;-73
2021/07/25 11:51:25;;;;;;;1.98;0.60;;;33.00;87.00;;;37.79;66.56;100726.25;4407439;39;97139;-71
2021/07/25 11:54:33;;;;;;;0.77;0.77;;;33.10;86.60;;;37.26;67.50;100724.91;4402419;39;98423;-70
2021/07/25 11:57:38;;;;;;;0.60;0.43;;;33.10;86.10;;;37.03;67.76;100720.19;4401105;39;97692;-71
2021/07/25 12:00:42;;;;;;;0.45;0.45;;;32.90;86.00;;;36.62;68.58;100726.81;4402526;39;97556;-72
2021/07/25 12:03:45;;;;;;;1.63;0.55;;;32.70;86.20;;;36.67;68.63;100734.50;4402859;39;96746;-72
2021/07/25 12:07:00;;;;;;;0.00;0.00;;;32.60;86.30;;;36.57;68.76;100724.69;4401239;39;97536;-72
2021/07/25 12:10:07;;;;;;;0.70;0.28;;;32.50;86.30;;;36.18;69.36;100719.53;4404147;39;97548;-72
2021/07/25 12:13:13;;;;;;;2.38;0.57;;;32.40;86.40;;;35.31;71.25;100723.88;4401928;39;97706;-71
2021/07/25 12:16:17;;;;;;;0.00;0.00;;;32.00;86.80;;;35.20;71.43;100724.34;4401727;39;97039;-71
2021/07/25 12:19:21;;;;;;;0.28;0.28;;;31.70;87.80;;;35.92;69.85;100729.63;4402016;39;98521;-72
2021/07/25 12:22:25;;;;;;;0.82;0.60;;;31.60;88.60;;;36.38;69.03;100722.50;4404098;39;96847;-72
2021/07/25 12:25:33;;;;;;;0.30;0.30;;;31.90;88.90;;;36.55;69.04;100720.81;4401625;39;97104;-72
2021/07/25 12:28:38;;;;;;;0.13;0.13;;;32.10;88.40;;;36.22;69.97;100717.34;4402360;39;96766;-71
2021/07/25 12:31:42;;;;;;;0.22;0.22;;;32.10;88.30;;;36.20;70.38;100717.06;4402868;39;96837;-72
2021/07/25 12:34:46;;;;;;;1.17;0.63;;;32.10;88.70;;;36.12;70.03;100729.81;4401570;39;96604;-72
2021/07/25 12:37:54;;;;;;;0.22;0.22;;;32.10;87.90;;;35.56;71.30;100729.78;4401272;39;96967;-71
2021/07/25 12:41:00;;;;;;;0.57;0.55;;;31.90;87.70;;;35.71;71.05;100727.88;4402463;39;97577;-70
2021/07/25 12:44:07;;;;;;;0.47;0.47;;;31.80;89.80;;;35.91;70.75;100727.31;4402269;39;97538;-70
2021/07/25 12:47:31;;;;;;;0.32;0.32;;;31.90;89.40;;;35.96;70.63;100719.81;4400911;39;97530;-72
2021/07/25 12:50:53;;;;;;;4.50;0.90;;;31.90;88.90;;;35.80;70.90;100722.25;4400788;39;96492;-71
2021/07/25 12:54:00;;;;;;;5.32;0.52;;;31.90;88.10;;;35.48;71.60;100727.81;4401535;39;96593;-70
2021/07/25 12:57:05;;;;;;;0.68;0.65;;;31.70;88.80;;;34.83;72.66;100722.88;4403374;39;98509;-69
2021/07/25 13:00:12;;;;;;;1.00;0.57;;;31.50;88.40;;;34.19;73.30;100718.53;4402737;39;97588;-74
2021/07/25 13:06:42;;;;;;;1.10;0.35;;;30.80;90.00;;;34.67;72.82;100720.41;4403346;39;96731;-72